createdAt,value
2022-08-09T00:01:15.366Z,1.92
2022-08-09T00:04:05.564Z,2.15
2022-08-09T00:06:32.163Z,2.08
2022-08-09T00:09:01.233Z,2.03
2022-08-09T00:12:03.854Z,2.50
2022-08-09T00:14:22.113Z,1.73
2022-08-09T00:17:04.790Z,1.83
2022-08-09T00:19:32.407Z,2.17
2022-08-09T00:22:03.671Z,2.35
2022-08-09T00:24:32.508Z,2.10
2022-08-09T00:27:01.329Z,2.13
2022-08-09T00:30:10.182Z,2.30
2022-08-09T00:32:26.781Z,2.35
2022-08-09T00:34:55.720Z,2.08
2022-08-09T00:37:24.061Z,1.98
2022-08-09T00:40:09.099Z,1.70
2022-08-09T00:44:15.691Z,1.95
2022-08-09T00:45:28.066Z,2.20
2022-08-09T00:47:55.657Z,1.70
2022-08-09T00:50:24.537Z,2.30
2022-08-09T00:52:56.252Z,2.10
2022-08-09T00:56:03.127Z,1.90
2022-08-09T00:58:14.503Z,1.85
2022-08-09T01:00:44.642Z,2.08
2022-08-09T01:03:28.443Z,1.95
2022-08-09T01:06:53.309Z,2.15
2022-08-09T01:09:56.616Z,1.90
2022-08-09T01:12:45.699Z,2.03
2022-08-09T01:15:19.916Z,2.20
2022-08-09T01:18:03.242Z,2.15
2022-08-09T01:21:17.185Z,2.30
2022-08-09T01:24:14.688Z,2.38
2022-08-09T01:27:09.715Z,2.15
2022-08-09T01:29:59.746Z,2.28
2022-08-09T01:32:36.994Z,2.40
2022-08-09T01:35:28.317Z,2.20
2022-08-09T01:38:15.425Z,2.28
2022-08-09T01:41:04.766Z,2.55
2022-08-09T01:43:50.422Z,2.17
2022-08-09T01:46:36.824Z,2.40
2022-08-09T01:49:17.594Z,2.10
2022-08-09T01:51:56.952Z,2.28
2022-08-09T01:54:32.794Z,1.95
2022-08-09T01:57:16.858Z,2.40
2022-08-09T01:59:52.032Z,2.38
2022-08-09T02:02:32.003Z,2.03
2022-08-09T02:05:15.114Z,2.13
2022-08-09T02:08:35.943Z,2.25
2022-08-09T02:10:55.771Z,2.30
2022-08-09T02:13:40.436Z,2.50
2022-08-09T02:16:12.393Z,2.42
2022-08-09T02:18:42.998Z,2.45
2022-08-09T02:21:22.168Z,2.38
2022-08-09T02:24:00.306Z,2.10
2022-08-09T02:26:34.690Z,2.22
2022-08-09T02:29:13.080Z,2.55
2022-08-09T02:31:50.838Z,1.85
2022-08-09T02:34:40.364Z,2.38
2022-08-09T02:37:15.582Z,2.33
2022-08-09T02:39:55.124Z,2.13
2022-08-09T02:42:35.446Z,2.55
2022-08-09T02:45:15.474Z,2.38
2022-08-09T02:47:57.999Z,2.38
2022-08-09T02:50:42.398Z,2.15
2022-08-09T02:53:26.648Z,2.08
2022-08-09T02:55:59.720Z,2.45
2022-08-09T02:58:36.877Z,2.65
2022-08-09T03:01:11.139Z,2.28
2022-08-09T03:04:17.258Z,2.30
2022-08-09T03:06:33.300Z,2.10
2022-08-09T03:09:02.386Z,2.20
2022-08-09T03:12:09.780Z,2.15
2022-08-09T03:14:22.088Z,2.17
2022-08-09T03:16:58.637Z,2.67
2022-08-09T03:19:58.002Z,2.40
2022-08-09T03:22:24.989Z,2.50
2022-08-09T03:25:06.266Z,2.78
2022-08-09T03:27:52.400Z,2.90
2022-08-09T03:30:29.706Z,2.60
2022-08-09T03:33:16.963Z,3.10
2022-08-09T03:36:12.303Z,3.00
2022-08-09T03:38:42.986Z,2.50
2022-08-09T03:41:18.470Z,2.35
2022-08-09T03:44:03.135Z,2.80
2022-08-09T03:46:36.553Z,2.63
2022-08-09T03:49:08.214Z,2.63
2022-08-09T03:51:58.640Z,2.33
2022-08-09T03:54:32.037Z,2.60
2022-08-09T03:57:18.163Z,2.67
2022-08-09T03:59:54.614Z,2.60
2022-08-09T04:02:28.304Z,2.45
2022-08-09T04:05:06.767Z,2.20
2022-08-09T04:07:53.581Z,2.83
2022-08-09T04:10:29.501Z,2.72
2022-08-09T04:13:04.105Z,2.47
2022-08-09T04:16:17.327Z,2.35
2022-08-09T04:18:21.309Z,2.22
2022-08-09T04:20:51.269Z,2.70
2022-08-09T04:23:23.481Z,2.03
2022-08-09T04:25:53.036Z,2.65
2022-08-09T04:28:30.818Z,2.58
2022-08-09T04:31:09.269Z,2.47
2022-08-09T04:33:52.497Z,2.17
2022-08-09T04:36:30.277Z,2.35
2022-08-09T04:39:05.287Z,2.28
2022-08-09T04:41:43.433Z,2.55
2022-08-09T04:44:14.732Z,2.58
2022-08-09T04:46:58.079Z,2.45
2022-08-09T04:49:53.736Z,2.72
2022-08-09T04:52:26.240Z,2.42
2022-08-09T04:54:56.176Z,2.38
2022-08-09T04:57:25.124Z,2.78
2022-08-09T04:59:54.772Z,2.60
2022-08-09T05:02:27.091Z,3.17
2022-08-09T05:04:56.253Z,2.70
2022-08-09T05:07:25.158Z,2.80
2022-08-09T05:09:57.961Z,3.08
2022-08-09T05:12:31.055Z,2.65
2022-08-09T05:14:58.840Z,2.67
2022-08-09T05:18:50.899Z,2.75
2022-08-09T05:20:15.806Z,3.03
2022-08-09T05:23:53.702Z,2.97
2022-08-09T05:25:32.660Z,3.40
2022-08-09T05:28:00.685Z,3.22
2022-08-09T05:30:29.934Z,3.80
2022-08-09T05:33:00.340Z,3.88
2022-08-09T05:35:30.035Z,3.53
2022-08-09T05:37:59.772Z,3.45
2022-08-09T05:40:28.960Z,3.47
2022-08-09T05:42:57.922Z,3.50
2022-08-09T05:45:25.967Z,3.85
2022-08-09T05:48:13.579Z,3.92
2022-08-09T05:50:51.171Z,3.33
2022-08-09T05:53:34.006Z,3.95
2022-08-09T05:56:04.342Z,3.33
2022-08-09T05:58:32.877Z,3.30
2022-08-09T06:01:00.657Z,3.78
2022-08-09T06:03:43.711Z,3.85
2022-08-09T06:06:14.640Z,3.67
2022-08-09T06:08:42.520Z,3.47
2022-08-09T06:11:17.481Z,3.03
2022-08-09T06:13:47.386Z,3.28
2022-08-09T06:16:16.339Z,3.33
2022-08-09T06:18:46.860Z,3.25
2022-08-09T06:21:16.303Z,3.40
2022-08-09T06:23:57.843Z,3.42
2022-08-09T06:26:29.129Z,3.60
2022-08-09T06:29:00.770Z,4.00
2022-08-09T06:31:40.633Z,3.60
2022-08-09T06:34:23.399Z,3.20
2022-08-09T06:36:57.289Z,3.40
2022-08-09T06:39:49.338Z,2.88
2022-08-09T06:42:24.722Z,3.05
2022-08-09T06:44:59.099Z,3.30
2022-08-09T06:47:30.217Z,3.40
2022-08-09T06:50:14.703Z,3.47
2022-08-09T06:52:48.801Z,3.33
2022-08-09T06:55:23.167Z,3.30
2022-08-09T06:58:03.624Z,2.88
2022-08-09T07:00:55.528Z,3.17
2022-08-09T07:03:28.050Z,2.85
2022-08-09T07:06:04.740Z,2.67
2022-08-09T07:08:37.112Z,3.22
2022-08-09T07:11:08.359Z,2.83
2022-08-09T07:13:45.170Z,3.00
2022-08-09T07:16:41.708Z,2.92
2022-08-09T07:19:15.835Z,2.72
2022-08-09T07:21:57.899Z,3.40
2022-08-09T07:24:40.086Z,2.47
2022-08-09T07:27:26.805Z,2.75
2022-08-09T07:30:00.849Z,2.45
2022-08-09T07:32:33.323Z,2.97
2022-08-09T07:35:08.049Z,2.75
2022-08-09T07:37:44.546Z,2.60
2022-08-09T07:40:20.761Z,3.10
2022-08-09T07:43:03.947Z,2.65
2022-08-09T07:45:42.881Z,2.33
2022-08-09T07:48:25.678Z,2.63
2022-08-09T07:51:09.935Z,2.35
2022-08-09T07:54:05.190Z,2.72
2022-08-09T07:56:36.973Z,2.65
2022-08-09T07:59:16.019Z,2.55
2022-08-09T08:02:01.236Z,2.42
2022-08-09T08:04:32.330Z,2.47
2022-08-09T08:07:15.417Z,2.40
2022-08-09T08:10:04.558Z,2.67
2022-08-09T08:12:42.439Z,2.42
2022-08-09T08:15:14.430Z,2.78
2022-08-09T08:17:54.927Z,2.50
2022-08-09T08:20:32.792Z,2.63
2022-08-09T08:23:16.868Z,2.33
2022-08-09T08:25:50.176Z,2.42
2022-08-09T08:28:35.096Z,2.90
2022-08-09T08:31:10.642Z,2.05
2022-08-09T08:33:53.081Z,2.38
2022-08-09T08:36:28.860Z,2.63
2022-08-09T08:38:58.434Z,2.47
2022-08-09T08:41:42.099Z,2.53
2022-08-09T08:44:27.191Z,2.30
2022-08-09T08:49:47.250Z,2.15
2022-08-09T08:55:23.137Z,2.22
2022-08-09T08:57:57.326Z,2.20
2022-08-09T09:00:30.467Z,3.13
2022-08-09T09:03:08.357Z,2.60
2022-08-09T09:06:00.149Z,2.20
2022-08-09T09:08:38.158Z,2.35
2022-08-09T09:11:13.866Z,2.30
2022-08-09T09:13:56.328Z,2.42
2022-08-09T09:16:33.916Z,2.10
2022-08-09T09:19:40.674Z,2.10
2022-08-09T09:22:11.483Z,2.03
2022-08-09T09:24:44.017Z,2.08
2022-08-09T09:28:03.748Z,1.92
2022-08-09T09:30:39.979Z,2.50
2022-08-09T09:33:15.447Z,2.08
2022-08-09T09:36:02.679Z,2.22
2022-08-09T09:38:52.621Z,2.20
2022-08-09T09:41:28.049Z,2.03
2022-08-09T09:44:11.927Z,1.92
2022-08-09T09:46:50.773Z,2.13
2022-08-09T09:49:32.257Z,1.93
2022-08-09T09:52:35.687Z,1.63
2022-08-09T09:55:27.524Z,1.92
2022-08-09T09:58:15.543Z,2.10
2022-08-09T10:01:03.218Z,1.70
2022-08-09T10:03:39.709Z,2.20
2022-08-09T10:06:07.989Z,1.70
2022-08-09T10:08:44.268Z,1.90
2022-08-09T10:12:01.277Z,1.65
2022-08-09T10:14:33.394Z,1.60
2022-08-09T10:17:39.554Z,1.92
2022-08-09T10:20:04.251Z,1.83
2022-08-09T10:22:41.076Z,1.58
2022-08-09T10:25:14.226Z,2.17
2022-08-09T10:27:57.845Z,1.67
2022-08-09T10:32:03.835Z,2.00
2022-08-09T10:34:07.862Z,1.90
2022-08-09T10:36:11.628Z,1.57
2022-08-09T10:38:57.308Z,1.80
2022-08-09T10:41:28.360Z,1.98
2022-08-09T10:44:00.960Z,1.83
2022-08-09T10:47:04.030Z,1.67
2022-08-09T10:50:04.673Z,2.33
2022-08-09T10:53:26.859Z,1.95
2022-08-09T10:56:24.102Z,1.67
2022-08-09T10:58:55.951Z,2.05
2022-08-09T11:03:13.616Z,2.00
2022-08-09T11:04:30.777Z,2.10
2022-08-09T11:07:00.030Z,1.85
2022-08-09T11:09:47.883Z,1.92
2022-08-09T11:12:18.902Z,1.70
2022-08-09T11:15:19.087Z,2.08
2022-08-09T11:17:53.675Z,1.85
2022-08-09T11:20:50.098Z,1.60
2022-08-09T11:23:23.789Z,1.80
2022-08-09T11:25:54.881Z,1.63
2022-08-09T11:28:30.729Z,1.70
2022-08-09T11:31:50.316Z,1.67
2022-08-09T11:34:51.621Z,1.60
2022-08-09T11:37:40.730Z,1.83
2022-08-09T11:40:13.088Z,2.00
2022-08-09T11:42:51.739Z,1.70
2022-08-09T11:45:42.219Z,1.67
2022-08-09T11:48:26.976Z,1.85
2022-08-09T11:52:48.842Z,1.75
2022-08-09T11:54:01.210Z,2.30
2022-08-09T11:56:41.752Z,1.63
2022-08-09T11:59:12.418Z,1.85
2022-08-09T12:02:34.657Z,1.70
2022-08-09T12:04:38.076Z,1.75
2022-08-09T12:07:08.341Z,1.75
2022-08-09T12:09:36.662Z,1.70
2022-08-09T12:12:28.825Z,1.70
2022-08-09T12:15:07.642Z,1.90
2022-08-09T12:17:44.454Z,2.00
2022-08-09T12:20:34.608Z,1.80
2022-08-09T12:23:04.758Z,1.75
2022-08-09T12:25:37.563Z,2.10
2022-08-09T12:28:58.183Z,1.70
2022-08-09T12:31:59.181Z,2.08
2022-08-09T12:34:38.805Z,2.03
2022-08-09T12:37:23.507Z,2.05
2022-08-09T12:40:08.870Z,2.10
2022-08-09T12:42:37.483Z,1.73
2022-08-09T12:45:32.251Z,2.20
2022-08-09T12:47:54.754Z,2.00
2022-08-09T12:50:23.763Z,1.85
2022-08-09T12:53:18.082Z,1.70
2022-08-09T12:56:14.738Z,1.83
2022-08-09T12:58:28.904Z,2.03
2022-08-09T13:00:57.661Z,2.00
2022-08-09T13:03:57.097Z,1.77
2022-08-09T13:06:36.669Z,1.75
2022-08-09T13:09:25.974Z,1.55
2022-08-09T13:12:06.437Z,1.80
2022-08-09T13:14:43.717Z,1.60
2022-08-09T13:17:44.056Z,1.77
2022-08-09T13:20:16.070Z,1.92
2022-08-09T13:23:05.385Z,1.60
2022-08-09T13:25:54.846Z,1.40
2022-08-09T13:28:34.117Z,1.90
2022-08-09T13:33:54.170Z,1.58
2022-08-09T13:36:40.489Z,1.70
2022-08-09T13:41:17.736Z,1.90
2022-08-09T13:42:12.985Z,1.83
2022-08-09T13:44:43.211Z,1.83
2022-08-09T13:47:33.000Z,1.60
2022-08-09T13:50:12.504Z,1.80
2022-08-09T13:52:42.225Z,2.65
2022-08-09T13:55:13.432Z,1.77
2022-08-09T13:57:55.878Z,1.95
2022-08-09T14:00:28.550Z,1.52
2022-08-09T14:03:16.821Z,2.10
2022-08-09T14:05:58.821Z,1.90
2022-08-09T14:08:33.011Z,1.88
2022-08-09T14:11:01.338Z,2.13
2022-08-09T14:14:23.195Z,2.03
2022-08-09T14:16:28.197Z,2.00
2022-08-09T14:18:58.466Z,1.73
2022-08-09T14:21:29.136Z,1.80
2022-08-09T14:24:00.999Z,1.80
2022-08-09T14:26:34.178Z,1.70
2022-08-09T14:29:07.382Z,1.70
2022-08-09T14:31:50.175Z,2.03
2022-08-09T14:34:32.392Z,1.90
2022-08-09T14:37:07.560Z,1.77
2022-08-09T14:39:46.815Z,1.40
2022-08-09T14:42:31.647Z,1.85
2022-08-09T14:46:46.037Z,1.48
2022-08-09T14:48:02.102Z,2.00
2022-08-09T14:50:34.550Z,1.55
2022-08-09T14:53:12.058Z,1.85
2022-08-09T14:55:47.846Z,2.85
2022-08-09T14:58:18.689Z,2.50
2022-08-09T15:00:48.207Z,2.00
2022-08-09T15:03:20.137Z,5.60
2022-08-09T15:05:50.302Z,1.85
2022-08-09T15:08:23.846Z,2.13
2022-08-09T15:11:01.092Z,5.47
2022-08-09T15:13:48.305Z,1.90
2022-08-09T15:16:17.790Z,1.83
2022-08-09T15:18:48.989Z,3.88
2022-08-09T15:21:56.132Z,1.33
2022-08-09T15:24:12.555Z,1.80
2022-08-09T15:26:46.378Z,1.80
2022-08-09T15:30:56.218Z,1.55
2022-08-09T15:32:04.113Z,1.52
2022-08-09T15:34:35.384Z,2.03
2022-08-09T15:37:38.000Z,1.35
2022-08-09T15:40:16.028Z,1.42
2022-08-09T15:42:50.722Z,2.50
2022-08-09T15:45:29.740Z,2.97
2022-08-09T15:48:05.480Z,1.17
2022-08-09T15:50:46.110Z,1.50
2022-08-09T15:53:18.843Z,1.70
2022-08-09T15:56:21.487Z,1.40
2022-08-09T15:58:49.882Z,1.50
2022-08-09T16:01:18.890Z,1.55
2022-08-09T16:03:47.170Z,1.38
2022-08-09T16:06:32.661Z,1.33
2022-08-09T16:09:05.788Z,1.42
2022-08-09T16:11:34.081Z,1.30
2022-08-09T16:14:06.831Z,1.73
2022-08-09T16:16:37.908Z,2.38
2022-08-09T16:19:08.041Z,2.03
2022-08-09T16:21:38.426Z,2.03
2022-08-09T16:26:55.200Z,1.60
2022-08-09T16:29:37.671Z,1.30
2022-08-09T16:32:33.451Z,1.30
2022-08-09T16:35:00.006Z,1.30
2022-08-09T16:37:54.550Z,1.50
2022-08-09T16:40:29.727Z,1.30
2022-08-09T16:43:07.993Z,1.20
2022-08-09T16:45:43.786Z,1.20
2022-08-09T16:48:42.025Z,1.80
2022-08-09T16:51:08.374Z,1.50
2022-08-09T16:54:25.135Z,1.30
2022-08-09T16:56:33.816Z,1.20
2022-08-09T16:59:06.507Z,1.10
2022-08-09T17:01:38.797Z,0.95
2022-08-09T17:04:06.884Z,1.02
2022-08-09T17:08:41.302Z,1.10
2022-08-09T17:09:44.549Z,1.20
2022-08-09T17:12:10.279Z,1.02
2022-08-09T17:14:37.641Z,1.10
2022-08-09T17:17:17.253Z,1.17
2022-08-09T17:20:30.413Z,1.17
2022-08-09T17:22:49.924Z,1.20
2022-08-09T17:25:21.982Z,1.38
2022-08-09T17:27:55.657Z,0.95
2022-08-09T17:30:29.096Z,1.08
2022-08-09T17:33:05.619Z,0.98
2022-08-09T17:35:50.757Z,1.77
2022-08-09T17:38:30.789Z,1.08
2022-08-09T17:41:03.293Z,1.00
2022-08-09T17:43:35.801Z,0.87
2022-08-09T17:46:09.757Z,1.02
2022-08-09T17:48:52.169Z,1.15
2022-08-09T17:51:22.023Z,1.20
2022-08-09T17:53:55.071Z,1.00
2022-08-09T17:56:28.907Z,1.30
2022-08-09T17:59:03.287Z,1.00
2022-08-09T18:01:57.951Z,0.90
2022-08-09T18:04:25.713Z,1.00
2022-08-09T18:06:55.285Z,0.90
2022-08-09T18:09:40.431Z,1.00
2022-08-09T18:12:20.066Z,1.13
2022-08-09T18:14:55.012Z,0.90
2022-08-09T18:18:03.308Z,0.95
2022-08-09T18:20:56.855Z,0.90
2022-08-09T18:23:07.185Z,1.00
2022-08-09T18:25:50.509Z,0.93
2022-08-09T18:30:35.021Z,1.00
2022-08-09T18:31:08.429Z,0.73
2022-08-09T18:33:36.529Z,1.00
2022-08-09T18:36:04.539Z,1.02
2022-08-09T18:38:32.196Z,1.02
2022-08-09T18:40:59.929Z,1.00
2022-08-09T18:43:28.270Z,0.93
2022-08-09T18:46:49.768Z,1.05
2022-08-09T18:48:52.640Z,0.90
2022-08-09T18:51:20.749Z,1.20
2022-08-09T18:54:08.634Z,1.00
2022-08-09T18:56:45.544Z,1.00
2022-08-09T18:59:22.642Z,1.00
2022-08-09T19:01:55.334Z,0.90
2022-08-09T19:04:34.653Z,0.93
2022-08-09T19:07:02.932Z,0.90
2022-08-09T19:10:13.265Z,0.90
2022-08-09T19:12:21.713Z,1.10
2022-08-09T19:14:51.882Z,1.00
2022-08-09T19:17:21.026Z,1.00
2022-08-09T19:19:49.280Z,1.40
2022-08-09T19:22:26.627Z,0.90
2022-08-09T19:25:11.557Z,0.80
2022-08-09T19:27:42.392Z,1.08
2022-08-09T19:30:22.911Z,0.90
2022-08-09T19:32:56.057Z,1.10
2022-08-09T19:35:26.721Z,0.95
2022-08-09T19:37:57.700Z,1.10
2022-08-09T19:40:34.220Z,0.90
2022-08-09T19:43:05.215Z,1.00
2022-08-09T19:45:40.298Z,1.20
2022-08-09T19:48:10.733Z,1.00
2022-08-09T19:50:50.273Z,1.20
2022-08-09T19:53:20.677Z,1.00
2022-08-09T19:56:02.470Z,1.00
2022-08-09T19:58:34.101Z,1.30
2022-08-09T20:01:02.057Z,1.08
2022-08-09T20:04:18.421Z,1.02
2022-08-09T20:06:22.937Z,1.40
2022-08-09T20:08:56.538Z,1.30
2022-08-09T20:11:27.157Z,1.00
2022-08-09T20:14:15.260Z,1.00
2022-08-09T20:16:54.168Z,0.90
2022-08-09T20:19:48.455Z,1.33
2022-08-09T20:22:14.157Z,1.15
2022-08-09T20:24:43.106Z,1.20
2022-08-09T20:27:22.311Z,1.20
2022-08-09T20:29:50.046Z,1.08
2022-08-09T20:32:30.414Z,0.88
2022-08-09T20:35:01.674Z,1.00
2022-08-09T20:37:37.812Z,1.00
2022-08-09T20:40:26.571Z,1.20
2022-08-09T20:43:00.087Z,1.15
2022-08-09T20:46:00.611Z,1.02
2022-08-09T20:48:32.715Z,1.38
2022-08-09T20:51:02.915Z,1.20
2022-08-09T20:53:37.678Z,1.13
2022-08-09T20:56:21.202Z,1.45
2022-08-09T20:58:54.598Z,1.02
2022-08-09T21:01:34.034Z,1.13
2022-08-09T21:07:12.043Z,0.90
2022-08-09T21:09:56.550Z,1.00
2022-08-09T21:12:32.315Z,1.83
2022-08-09T21:15:03.003Z,1.10
2022-08-09T21:18:11.062Z,1.10
2022-08-09T21:20:25.782Z,1.13
2022-08-09T21:22:54.836Z,1.10
2022-08-09T21:25:44.015Z,1.00
2022-08-09T21:28:36.517Z,1.00
2022-08-09T21:31:17.556Z,1.13
2022-08-09T21:33:52.776Z,1.02
2022-08-09T21:36:28.852Z,1.00
2022-08-09T21:38:59.612Z,1.05
2022-08-09T21:42:03.445Z,1.23
2022-08-09T21:44:34.006Z,1.20
2022-08-09T21:47:17.556Z,1.20
2022-08-09T21:49:48.320Z,1.20
2022-08-09T21:52:20.879Z,1.10
2022-08-09T21:55:03.615Z,1.27
2022-08-09T21:57:58.741Z,1.30
2022-08-09T22:00:33.865Z,1.10
2022-08-09T22:03:19.179Z,1.00
2022-08-09T22:05:54.105Z,1.10
2022-08-09T22:08:25.860Z,1.10
2022-08-09T22:13:43.971Z,1.10
2022-08-09T22:16:12.247Z,1.20
2022-08-09T22:18:52.204Z,1.10
2022-08-09T22:21:27.455Z,1.10
2022-08-09T22:26:51.432Z,0.95
2022-08-09T22:29:28.845Z,1.20
2022-08-09T22:32:07.091Z,1.10
2022-08-09T22:35:02.489Z,1.92
2022-08-09T22:37:40.458Z,1.13
2022-08-09T22:40:19.966Z,1.20
2022-08-09T22:42:48.255Z,1.25
2022-08-09T22:48:10.618Z,1.00
2022-08-09T22:48:11.358Z,1.30
2022-08-09T22:50:52.847Z,1.40
2022-08-09T22:53:20.999Z,1.15
2022-08-09T22:56:29.999Z,1.00
2022-08-09T22:58:40.780Z,1.00
2022-08-09T23:01:10.061Z,1.40
2022-08-09T23:04:03.935Z,1.10
2022-08-09T23:06:35.689Z,1.08
2022-08-09T23:09:06.506Z,1.20
2022-08-09T23:11:34.238Z,0.88
2022-08-09T23:14:03.205Z,1.40
2022-08-09T23:16:32.006Z,1.27
2022-08-09T23:18:59.940Z,1.65
2022-08-09T23:21:32.760Z,1.10
2022-08-09T23:24:06.574Z,1.10
2022-08-09T23:26:38.985Z,1.30
2022-08-09T23:29:11.641Z,1.40
2022-08-09T23:31:40.234Z,1.27
2022-08-09T23:34:08.347Z,1.40
2022-08-09T23:36:36.951Z,1.50
2022-08-09T23:39:07.236Z,1.23
2022-08-09T23:41:35.747Z,1.75
2022-08-09T23:44:04.261Z,1.45
2022-08-09T23:46:32.853Z,1.15
2022-08-09T23:49:01.234Z,1.27
2022-08-09T23:51:32.305Z,1.23
2022-08-09T23:54:02.434Z,1.38
2022-08-09T23:56:53.378Z,1.30
2022-08-09T23:59:24.197Z,0.90
